Time,TemperatureF,DewpointF,PressureIn,WindDirection,WindDirectionDegrees,WindSpeedMPH,WindSpeedGustMPH,Humidity,HourlyPrecipIn,Conditions,Clouds,dailyrainin,SoftwareType,DateUTC
2013-01-30 00:09:00,67.6,66.1,29.58,SW,225,11.9,-999.0,95,-99.99,,,0.00,Acu-Link.com,2013-01-30 05:09:00,
2013-01-30 00:24:00,67.6,66.1,29.57,SSW,202,9.4,-999.0,95,-99.99,,,0.00,Acu-Link.com,2013-01-30 05:24:00,
2013-01-30 00:40:00,67.6,66.1,29.58,SW,225,13.5,-999.0,95,-99.99,,,0.00,Acu-Link.com,2013-01-30 05:40:00,
2013-01-30 00:55:00,67.5,66.0,29.57,SSW,202,13.5,-999.0,95,-99.99,,,0.00,Acu-Link.com,2013-01-30 05:55:00,
2013-01-30 01:10:00,67.6,65.8,29.56,SSW,202,8.9,-999.0,94,-99.99,,,0.00,Acu-Link.com,2013-01-30 06:10:00,
2013-01-30 01:25:00,67.6,65.8,29.56,West,270,12.5,-999.0,94,-99.99,,,0.00,Acu-Link.com,2013-01-30 06:25:00,
2013-01-30 01:40:00,67.3,65.5,29.56,SSW,202,10.9,-999.0,94,-99.99,,,0.00,Acu-Link.com,2013-01-30 06:40:00,
2013-01-30 01:55:00,67.3,65.2,29.54,South,180,10.4,-999.0,93,-99.99,,,0.00,Acu-Link.com,2013-01-30 06:55:00,
2013-01-30 02:10:00,67.6,65.5,29.52,SW,225,12.5,-999.0,93,-99.99,,,0.00,Acu-Link.com,2013-01-30 07:10:00,
2013-01-30 02:25:00,66.9,64.8,29.52,SSW,202,9.4,-999.0,93,-99.99,,,0.00,Acu-Link.com,2013-01-30 07:25:00,
2013-01-30 02:40:00,66.4,65.2,29.52,SSW,202,14.0,-999.0,96,-99.99,,,0.00,Acu-Link.com,2013-01-30 07:40:00,
2013-01-30 02:56:00,66.4,65.2,29.51,SSW,202,14.0,-999.0,96,-99.99,,,0.00,Acu-Link.com,2013-01-30 07:56:00,
2013-01-30 03:11:00,66.4,65.2,29.51,SSW,202,6.3,-999.0,96,-99.99,,,0.00,Acu-Link.com,2013-01-30 08:11:00,
2013-01-30 03:26:00,66.6,65.4,29.50,South,180,11.4,-999.0,96,-99.99,,,0.00,Acu-Link.com,2013-01-30 08:26:00,
2013-01-30 03:41:00,66.4,65.2,29.49,SSE,157,15.0,-999.0,96,-99.99,,,0.00,Acu-Link.com,2013-01-30 08:41:00,
2013-01-30 03:56:00,66.4,65.5,29.49,SSW,202,7.3,-999.0,97,-99.99,,,0.00,Acu-Link.com,2013-01-30 08:56:00,
2013-01-30 04:15:00,66.4,65.5,29.49,South,180,14.5,-999.0,97,-99.99,,,0.00,Acu-Link.com,2013-01-30 09:15:00,
2013-01-30 04:30:00,66.2,65.6,29.47,South,180,10.9,-999.0,98,-99.99,,,0.00,Acu-Link.com,2013-01-30 09:30:00,
2013-01-30 04:45:00,66.0,65.4,29.47,South,180,8.9,-999.0,98,-99.99,,,0.00,Acu-Link.com,2013-01-30 09:45:00,
2013-01-30 05:00:00,66.2,65.6,29.45,SSW,202,10.9,-999.0,98,-99.99,,,0.00,Acu-Link.com,2013-01-30 10:00:00,
2013-01-30 05:15:00,66.7,66.1,29.45,South,180,14.0,-999.0,98,-99.99,,,0.00,Acu-Link.com,2013-01-30 10:15:00,
2013-01-30 05:30:00,66.7,66.1,29.44,SSW,202,6.8,-999.0,98,-99.99,,,0.00,Acu-Link.com,2013-01-30 10:30:00,
2013-01-30 05:46:00,66.4,65.8,29.43,NNW,337,2.7,-999.0,98,-99.99,,,0.00,Acu-Link.com,2013-01-30 10:46:00,
2013-01-30 06:01:00,66.4,65.8,29.42,SSW,202,6.8,-999.0,98,-99.99,,,0.00,Acu-Link.com,2013-01-30 11:01:00,
2013-01-30 06:16:00,66.6,66.0,29.40,SSW,202,8.3,-999.0,98,-99.99,,,0.00,Acu-Link.com,2013-01-30 11:16:00,
2013-01-30 06:31:00,66.4,65.8,29.39,SSW,202,17.6,-999.0,98,-99.99,,,0.00,Acu-Link.com,2013-01-30 11:31:00,
2013-01-30 06:46:00,66.6,66.0,29.39,SSW,202,10.4,-999.0,98,-99.99,,,0.00,Acu-Link.com,2013-01-30 11:46:00,
2013-01-30 07:01:00,66.4,65.8,29.39,SSW,202,7.3,-999.0,98,-99.99,,,0.01,Acu-Link.com,2013-01-30 12:01:00,
2013-01-30 07:16:00,66.6,66.0,29.38,SSE,157,7.3,-999.0,98,-99.99,,,0.01,Acu-Link.com,2013-01-30 12:16:00,
2013-01-30 07:31:00,66.0,65.4,29.37,SSW,202,5.3,-999.0,98,-99.99,,,0.06,Acu-Link.com,2013-01-30 12:31:00,
2013-01-30 07:46:00,66.0,65.4,29.37,SSW,202,7.8,-999.0,98,-99.99,,,0.10,Acu-Link.com,2013-01-30 12:46:00,
2013-01-30 08:02:00,66.0,65.4,29.37,South,180,3.7,-999.0,98,-99.99,,,0.11,Acu-Link.com,2013-01-30 13:02:00,
2013-01-30 08:17:00,65.8,65.2,29.35,NNW,337,2.7,-999.0,98,-99.99,,,0.24,Acu-Link.com,2013-01-30 13:17:00,
2013-01-30 08:32:00,66.0,65.4,29.39,SSE,157,6.3,-999.0,98,-99.99,,,0.27,Acu-Link.com,2013-01-30 13:32:00,
2013-01-30 08:47:00,67.1,66.5,29.38,SSW,202,6.3,-999.0,98,-99.99,,,0.45,Acu-Link.com,2013-01-30 13:47:00,
2013-01-30 09:02:00,67.5,66.9,29.37,SSW,202,7.3,-999.0,98,-99.99,,,0.47,Acu-Link.com,2013-01-30 14:02:00,
2013-01-30 09:17:00,67.8,67.2,29.37,WSW,247,3.7,-999.0,98,-99.99,,,0.47,Acu-Link.com,2013-01-30 14:17:00,
2013-01-30 09:32:00,67.6,67.0,29.37,SSW,202,0.0,-999.0,98,-99.99,,,0.47,Acu-Link.com,2013-01-30 14:32:00,
2013-01-30 09:47:00,63.7,62.5,29.37,NE,45,4.2,-999.0,96,-99.99,,,0.48,Acu-Link.com,2013-01-30 14:47:00,
2013-01-30 10:02:00,60.3,59.7,29.39,ESE,112,3.2,-999.0,98,-99.99,,,0.56,Acu-Link.com,2013-01-30 15:02:00,
2013-01-30 10:18:00,59.2,58.6,29.37,SSW,202,1.7,-999.0,98,-99.99,,,0.57,Acu-Link.com,2013-01-30 15:18:00,
2013-01-30 10:33:00,58.3,57.7,29.38,NNW,337,0.0,-999.0,98,-99.99,,,0.71,Acu-Link.com,2013-01-30 15:33:00,
2013-01-30 10:48:00,57.4,56.8,29.40,SSW,202,5.8,-999.0,98,-99.99,,,1.42,Acu-Link.com,2013-01-30 15:48:00,
2013-01-30 11:03:00,57.4,56.8,29.39,SSW,202,4.2,-999.0,98,-99.99,,,1.52,Acu-Link.com,2013-01-30 16:03:00,
2013-01-30 11:18:00,57.4,56.8,29.38,SSE,157,3.7,-999.0,98,-99.99,,,1.56,Acu-Link.com,2013-01-30 16:18:00,
2013-01-30 11:33:00,57.4,56.8,29.38,South,180,1.7,-999.0,98,-99.99,,,1.64,Acu-Link.com,2013-01-30 16:33:00,
2013-01-30 11:48:00,57.4,56.8,29.35,SSW,202,2.2,-999.0,98,-99.99,,,1.70,Acu-Link.com,2013-01-30 16:48:00,
2013-01-30 12:03:00,57.7,57.1,29.35,South,180,1.7,-999.0,98,-99.99,,,1.80,Acu-Link.com,2013-01-30 17:03:00,
2013-01-30 12:18:00,57.7,57.1,29.35,SSW,202,5.8,-999.0,98,-99.99,,,1.85,Acu-Link.com,2013-01-30 17:18:00,
2013-01-30 12:34:00,57.7,57.1,29.33,South,180,0.0,-999.0,98,-99.99,,,1.89,Acu-Link.com,2013-01-30 17:34:00,
2013-01-30 12:49:00,57.7,57.1,29.31,SSW,202,3.2,-999.0,98,-99.99,,,1.93,Acu-Link.com,2013-01-30 17:49:00,
2013-01-30 13:04:00,57.9,57.3,29.33,WNW,292,1.7,-999.0,98,-99.99,,,1.96,Acu-Link.com,2013-01-30 18:04:00,
2013-01-30 13:19:00,57.9,57.3,29.34,West,270,1.7,-999.0,98,-99.99,,,1.97,Acu-Link.com,2013-01-30 18:19:00,
2013-01-30 13:34:00,58.1,57.5,29.33,NW,315,0.0,-999.0,98,-99.99,,,1.99,Acu-Link.com,2013-01-30 18:34:00,
2013-01-30 13:49:00,57.2,56.6,29.31,NNE,22,1.1,-999.0,98,-99.99,,,2.01,Acu-Link.com,2013-01-30 18:49:00,
2013-01-30 14:04:00,55.9,55.3,29.31,ENE,67,3.2,-999.0,98,-99.99,,,2.05,Acu-Link.com,2013-01-30 19:04:00,
2013-01-30 14:19:00,54.7,54.1,29.32,WNW,292,5.3,-999.0,98,-99.99,,,2.08,Acu-Link.com,2013-01-30 19:19:00,
2013-01-30 14:34:00,53.6,53.0,29.32,NNE,22,1.7,-999.0,98,-99.99,,,2.11,Acu-Link.com,2013-01-30 19:34:00,
2013-01-30 14:50:00,53.4,52.8,29.32,SSE,157,2.2,-999.0,98,-99.99,,,2.13,Acu-Link.com,2013-01-30 19:50:00,
2013-01-30 15:05:00,53.1,52.5,29.33,NE,45,2.2,-999.0,98,-99.99,,,2.16,Acu-Link.com,2013-01-30 20:05:00,
2013-01-30 15:20:00,52.7,52.2,29.33,East,90,0.0,-999.0,98,-99.99,,,2.20,Acu-Link.com,2013-01-30 20:20:00,
2013-01-30 15:35:00,52.3,51.8,29.33,West,270,0.0,-999.0,98,-99.99,,,2.22,Acu-Link.com,2013-01-30 20:35:00,
2013-01-30 15:50:00,52.2,51.7,29.34,WNW,292,0.0,-999.0,98,-99.99,,,2.24,Acu-Link.com,2013-01-30 20:50:00,
2013-01-30 16:05:00,51.8,51.3,29.35,NE,45,0.0,-999.0,98,-99.99,,,2.26,Acu-Link.com,2013-01-30 21:05:00,
2013-01-30 16:20:00,51.3,50.8,29.35,NNE,22,1.7,-999.0,98,-99.99,,,2.28,Acu-Link.com,2013-01-30 21:20:00,
2013-01-30 16:35:00,50.9,50.4,29.34,SSW,202,3.2,-999.0,98,-99.99,,,2.31,Acu-Link.com,2013-01-30 21:35:00,
2013-01-30 16:50:00,50.7,50.2,29.33,SSW,202,3.2,-999.0,98,-99.99,,,2.32,Acu-Link.com,2013-01-30 21:50:00,
2013-01-30 17:06:00,50.7,50.2,29.32,SSW,202,10.9,-999.0,98,-99.99,,,2.33,Acu-Link.com,2013-01-30 22:06:00,
2013-01-30 17:21:00,50.7,50.2,29.31,SSW,202,6.3,-999.0,98,-99.99,,,2.33,Acu-Link.com,2013-01-30 22:21:00,
2013-01-30 17:36:00,50.2,49.4,29.32,South,180,5.8,-999.0,97,-99.99,,,2.34,Acu-Link.com,2013-01-30 22:36:00,
2013-01-30 17:51:00,49.6,48.8,29.31,SW,225,4.7,-999.0,97,-99.99,,,2.34,Acu-Link.com,2013-01-30 22:51:00,
2013-01-30 18:06:00,49.3,48.8,29.33,SW,225,2.2,-999.0,98,-99.99,,,2.34,Acu-Link.com,2013-01-30 23:06:00,
2013-01-30 18:21:00,49.3,48.8,29.34,South,180,4.7,-999.0,98,-99.99,,,2.34,Acu-Link.com,2013-01-30 23:21:00,
2013-01-30 18:36:00,49.5,49.0,29.33,SSW,202,5.3,-999.0,98,-99.99,,,2.34,Acu-Link.com,2013-01-30 23:36:00,
2013-01-30 18:51:00,49.5,49.0,29.33,SSW,202,4.7,-999.0,98,-99.99,,,2.34,Acu-Link.com,2013-01-30 23:51:00,
2013-01-30 19:06:00,49.5,49.0,29.32,South,180,4.7,-999.0,98,-99.99,,,2.34,Acu-Link.com,2013-01-31 00:06:00,
2013-01-30 19:22:00,49.6,49.1,29.33,SSW,202,7.3,-999.0,98,-99.99,,,2.34,Acu-Link.com,2013-01-31 00:22:00,
2013-01-30 19:37:00,49.6,49.1,29.34,SW,225,5.8,-999.0,98,-99.99,,,2.34,Acu-Link.com,2013-01-31 00:37:00,
2013-01-30 19:52:00,49.8,49.3,29.36,SW,225,5.3,-999.0,98,-99.99,,,2.34,Acu-Link.com,2013-01-31 00:52:00,
2013-01-30 20:07:00,49.5,49.0,29.34,South,180,4.7,-999.0,98,-99.99,,,2.34,Acu-Link.com,2013-01-31 01:07:00,
2013-01-30 20:22:00,49.5,48.7,29.35,SSW,202,5.3,-999.0,97,-99.99,,,2.34,Acu-Link.com,2013-01-31 01:22:00,
2013-01-30 20:37:00,49.5,48.4,29.36,WNW,292,2.2,-999.0,96,-99.99,,,2.34,Acu-Link.com,2013-01-31 01:37:00,
2013-01-30 20:52:00,49.5,46.4,29.38,NNW,337,2.7,-999.0,89,-99.99,,,2.34,Acu-Link.com,2013-01-31 01:52:00,
2013-01-30 21:07:00,48.4,45.0,29.39,West,270,6.3,-999.0,88,-99.99,,,2.34,Acu-Link.com,2013-01-31 02:07:00,
2013-01-30 21:22:00,47.3,45.7,29.40,West,270,3.2,-999.0,94,-99.99,,,2.34,Acu-Link.com,2013-01-31 02:22:00,
2013-01-30 21:38:00,46.0,45.5,29.43,NNE,22,4.2,-999.0,98,-99.99,,,2.35,Acu-Link.com,2013-01-31 02:38:00,
2013-01-30 21:53:00,44.6,44.1,29.44,East,90,2.2,-999.0,98,-99.99,,,2.36,Acu-Link.com,2013-01-31 02:53:00,
2013-01-30 22:08:00,43.7,43.2,29.45,NNW,337,3.2,-999.0,98,-99.99,,,2.37,Acu-Link.com,2013-01-31 03:08:00,
2013-01-30 22:23:00,43.2,41.6,29.46,South,180,2.2,-999.0,94,-99.99,,,2.37,Acu-Link.com,2013-01-31 03:23:00,
2013-01-30 22:38:00,43.0,40.3,29.48,East,90,3.2,-999.0,90,-99.99,,,2.37,Acu-Link.com,2013-01-31 03:38:00,
2013-01-30 22:53:00,42.6,39.0,29.50,WNW,292,2.7,-999.0,87,-99.99,,,2.37,Acu-Link.com,2013-01-31 03:53:00,
2013-01-30 23:08:00,42.1,38.8,29.52,SW,225,8.9,-999.0,88,-99.99,,,2.37,Acu-Link.com,2013-01-31 04:08:00,
2013-01-30 23:24:00,40.3,38.2,29.54,South,180,2.7,-999.0,92,-99.99,,,2.37,Acu-Link.com,2013-01-31 04:24:00,
2013-01-30 23:39:00,40.3,37.3,29.56,South,180,2.7,-999.0,89,-99.99,,,2.37,Acu-Link.com,2013-01-31 04:39:00,
2013-01-30 23:54:00,40.6,35.5,29.58,SW,225,4.7,-999.0,82,-99.99,,,2.37,Acu-Link.com,2013-01-31 04:54:00,